Time;durP1;ratioP1;P1;durP2;ratioP2;P2;SDS_P1;SDS_P2;PMS_P1;PMS_P2;Temp;Humidity;BMP_temperature;BMP_pressure;BME280_temperature;BME280_humidity;BME280_pressure;Samples;Min_cycle;Max_cycle;Signal;HPM_P1;HPM_P2
2022/01/16 00:00:40;;;;;;;;;66.25;47.75;;;;;;;;5074837;28;45703;-67
2022/01/16 00:05:53;;;;;;;;;68.00;49.25;;;;;;;;5074076;28;45321;-68
2022/01/16 00:08:18;;;;;;;;;60.33;49.00;;;;;;;;5074346;28;45439;-68
2022/01/16 00:10:43;;;;;;;;;60.25;47.25;;;;;;;;5074354;27;45494;-68
2022/01/16 00:13:08;;;;;;;;;64.00;52.67;;;;;;;;5076196;28;45429;-68
2022/01/16 00:15:34;;;;;;;;;57.50;46.00;;;;;;;;5072599;28;45469;-68
2022/01/16 00:20:31;;;;;;;;;59.25;45.75;;;;;;;;5074218;28;45513;-68
2022/01/16 00:22:57;;;;;;;;;66.00;52.25;;;;;;;;5074224;28;46369;-68
2022/01/16 00:25:23;;;;;;;;;58.00;48.00;;;;;;;;5075389;27;45363;-68
2022/01/16 00:27:48;;;;;;;;;64.25;49.75;;;;;;;;5074553;27;45253;-68
2022/01/16 00:30:14;;;;;;;;;64.00;48.75;;;;;;;;5074120;28;45397;-68
2022/01/16 00:32:39;;;;;;;;;62.00;49.50;;;;;;;;5073329;28;46563;-68
2022/01/16 00:35:05;;;;;;;;;60.75;45.50;;;;;;;;5053676;28;45468;-68
2022/01/16 00:37:30;;;;;;;;;65.25;48.50;;;;;;;;5074481;27;45329;-67
2022/01/16 00:39:55;;;;;;;;;65.50;49.25;;;;;;;;5075623;27;45470;-68
2022/01/16 00:42:20;;;;;;;;;61.50;47.25;;;;;;;;5073220;27;46269;-68
2022/01/16 00:44:46;;;;;;;;;69.00;47.00;;;;;;;;5073518;28;45934;-68
2022/01/16 00:47:11;;;;;;;;;57.75;44.25;;;;;;;;5074096;27;45601;-68
2022/01/16 00:49:39;;;;;;;;;67.75;48.00;;;;;;;;5073266;28;45463;-68
2022/01/16 00:52:05;;;;;;;;;61.50;49.00;;;;;;;;5075403;27;47130;-68
2022/01/16 00:54:30;;;;;;;;;70.00;51.50;;;;;;;;5071836;28;45577;-68
2022/01/16 00:56:55;;;;;;;;;64.00;52.00;;;;;;;;5072085;27;45581;-68
2022/01/16 00:59:20;;;;;;;;;63.75;50.25;;;;;;;;5073293;27;45475;-68
2022/01/16 01:01:45;;;;;;;;;62.00;48.25;;;;;;;;5073575;27;47004;-68
2022/01/16 01:04:11;;;;;;;;;64.25;46.25;;;;;;;;5075029;27;45479;-68
2022/01/16 01:06:36;;;;;;;;;64.25;49.25;;;;;;;;5073551;28;45336;-68
2022/01/16 01:09:01;;;;;;;;;65.75;48.25;;;;;;;;5073841;28;45600;-67
2022/01/16 01:11:29;;;;;;;;;60.75;47.50;;;;;;;;5055082;27;47152;-67
2022/01/16 01:14:07;;;;;;;;;58.50;45.50;;;;;;;;5073753;28;45383;-68
2022/01/16 01:16:51;;;;;;;;;65.25;49.00;;;;;;;;5073791;28;45565;-68
2022/01/16 01:19:17;;;;;;;;;63.75;50.25;;;;;;;;5070989;27;45473;-68
2022/01/16 01:21:43;;;;;;;;;58.00;45.25;;;;;;;;5073437;28;47115;-68
2022/01/16 01:24:08;;;;;;;;;62.33;43.33;;;;;;;;5072948;27;45312;-68
2022/01/16 01:26:41;;;;;;;;;60.50;47.75;;;;;;;;5073504;28;45329;-68
2022/01/16 01:29:06;;;;;;;;;61.00;47.67;;;;;;;;5073001;27;45387;-68
2022/01/16 01:31:31;;;;;;;;;68.67;51.00;;;;;;;;5073514;27;46894;-68
2022/01/16 01:33:57;;;;;;;;;65.75;46.50;;;;;;;;5072581;27;45355;-68
2022/01/16 01:36:22;;;;;;;;;55.75;44.00;;;;;;;;5071821;27;45414;-68
2022/01/16 01:38:47;;;;;;;;;65.00;49.75;;;;;;;;5073303;28;45385;-68
2022/01/16 01:41:13;;;;;;;;;66.33;47.33;;;;;;;;5073146;28;47182;-68
2022/01/16 01:51:36;;;;;;;;;65.75;49.50;;;;;;;;5072863;27;45514;-68
2022/01/16 01:54:03;;;;;;;;;69.75;52.50;;;;;;;;5072922;27;45440;-68
2022/01/16 01:56:28;;;;;;;;;61.50;48.00;;;;;;;;5073163;28;45347;-67
2022/01/16 01:58:55;;;;;;;;;64.25;49.50;;;;;;;;5072731;27;45381;-68
2022/01/16 02:01:21;;;;;;;;;62.50;48.00;;;;;;;;5073482;27;46218;-68
2022/01/16 02:03:48;;;;;;;;;73.00;51.75;;;;;;;;5072798;28;45428;-68
2022/01/16 02:06:18;;;;;;;;;57.25;40.25;;;;;;;;5074149;28;45510;-68
2022/01/16 02:08:45;;;;;;;;;60.75;47.75;;;;;;;;5076336;27;45275;-67
2022/01/16 02:11:14;;;;;;;;;68.00;51.50;;;;;;;;5074202;28;45422;-67
2022/01/16 02:35:39;;;;;;;;;62.25;46.25;;;;;;;;5075799;28;45314;-66
2022/01/16 02:38:06;;;;;;;;;62.33;48.33;;;;;;;;5076002;27;45631;-66
2022/01/16 02:40:31;;;;;;;;;61.75;50.25;;;;;;;;5075727;27;45393;-65
2022/01/16 02:42:57;;;;;;;;;64.67;47.00;;;;;;;;5077238;28;45536;-65
2022/01/16 02:45:30;;;;;;;;;55.33;42.67;;;;;;;;5075040;27;45277;-65
2022/01/16 02:48:00;;;;;;;;;65.50;50.00;;;;;;;;5075591;27;45473;-65
2022/01/16 02:50:25;;;;;;;;;59.50;47.50;;;;;;;;5073859;27;45476;-65
2022/01/16 02:52:51;;;;;;;;;60.75;45.50;;;;;;;;5074059;28;45434;-65
2022/01/16 02:55:19;;;;;;;;;53.50;43.75;;;;;;;;5077105;27;45352;-65
2022/01/16 02:57:44;;;;;;;;;59.50;48.50;;;;;;;;5074624;27;45486;-65
2022/01/16 03:00:10;;;;;;;;;61.00;46.00;;;;;;;;5074929;28;45419;-66
2022/01/16 03:02:35;;;;;;;;;65.33;49.00;;;;;;;;5075307;27;46112;-66
2022/01/16 03:05:00;;;;;;;;;63.00;48.75;;;;;;;;5075491;27;45605;-65
2022/01/16 03:07:26;;;;;;;;;70.67;50.33;;;;;;;;5076292;27;45282;-65
2022/01/16 03:10:30;;;;;;;;;63.00;49.00;;;;;;;;5076825;27;45538;-65
2022/01/16 03:12:49;;;;;;;;;60.00;49.33;;;;;;;;5074791;27;45316;-66
2022/01/16 03:15:15;;;;;;;;;65.00;50.00;;;;;;;;5075045;28;45493;-65
2022/01/16 03:21:52;;;;;;;;;71.00;52.33;;;;;;;;5074244;28;45379;-65
2022/01/16 03:23:10;;;;;;;;;64.75;50.00;;;;;;;;5075200;27;45432;-65
2022/01/16 03:25:35;;;;;;;;;64.67;51.00;;;;;;;;5075381;28;45193;-66
2022/01/16 03:28:01;;;;;;;;;71.00;53.00;;;;;;;;5076576;28;45277;-66
2022/01/16 03:30:26;;;;;;;;;64.50;49.50;;;;;;;;5073187;28;45420;-65
2022/01/16 03:32:51;;;;;;;;;69.75;48.75;;;;;;;;5072874;27;46008;-66
2022/01/16 03:35:16;;;;;;;;;64.50;50.50;;;;;;;;5074630;28;45513;-66
2022/01/16 03:37:41;;;;;;;;;68.00;49.67;;;;;;;;5056919;27;45375;-65
2022/01/16 03:40:10;;;;;;;;;66.00;49.00;;;;;;;;5076582;27;45510;-65
2022/01/16 03:42:37;;;;;;;;;61.75;46.00;;;;;;;;5074010;28;46444;-66
2022/01/16 03:45:02;;;;;;;;;67.33;50.00;;;;;;;;5074790;28;45490;-66
2022/01/16 03:47:28;;;;;;;;;62.00;49.33;;;;;;;;5074907;28;45490;-66
2022/01/16 03:49:53;;;;;;;;;67.67;50.00;;;;;;;;5074940;27;45328;-65
2022/01/16 03:52:18;;;;;;;;;68.33;52.67;;;;;;;;5076175;28;45973;-66
2022/01/16 03:54:43;;;;;;;;;62.67;50.67;;;;;;;;5075207;27;45263;-65
2022/01/16 03:57:08;;;;;;;;;70.67;51.00;;;;;;;;5074188;28;45414;-65
2022/01/16 03:59:34;;;;;;;;;69.00;50.67;;;;;;;;5074770;28;45395;-66
2022/01/16 04:01:59;;;;;;;;;61.67;46.00;;;;;;;;5074548;28;45283;-65
2022/01/16 04:04:24;;;;;;;;;65.67;48.67;;;;;;;;5075679;27;45243;-65
2022/01/16 04:06:50;;;;;;;;;64.33;51.33;;;;;;;;5075550;27;45867;-65
2022/01/16 04:09:16;;;;;;;;;61.33;50.33;;;;;;;;5057436;28;45396;-65
2022/01/16 04:11:50;;;;;;;;;71.33;52.00;;;;;;;;5072193;28;46175;-66
2022/01/16 04:14:22;;;;;;;;;69.00;50.67;;;;;;;;5073955;28;45678;-66
2022/01/16 04:16:47;;;;;;;;;66.33;50.33;;;;;;;;5058777;28;45525;-65
2022/01/16 04:19:12;;;;;;;;;71.33;50.67;;;;;;;;5076426;27;45333;-65
2022/01/16 04:21:37;;;;;;;;;67.33;51.00;;;;;;;;5074110;28;45513;-66
2022/01/16 04:24:03;;;;;;;;;61.00;48.67;;;;;;;;5073696;28;45420;-66
2022/01/16 04:26:28;;;;;;;;;59.00;46.33;;;;;;;;5073898;28;45521;-65
2022/01/16 04:28:53;;;;;;;;;65.00;51.00;;;;;;;;5074067;28;45439;-66
2022/01/16 04:31:19;;;;;;;;;69.33;52.00;;;;;;;;5075653;28;45348;-65
2022/01/16 04:33:45;;;;;;;;;63.50;50.25;;;;;;;;5074646;27;45272;-65
2022/01/16 04:36:11;;;;;;;;;67.50;48.50;;;;;;;;5074327;27;45435;-66
2022/01/16 04:38:38;;;;;;;;;61.75;50.00;;;;;;;;5074062;28;45411;-65
2022/01/16 04:43:48;;;;;;;;;73.50;52.25;;;;;;;;5056928;27;45489;-64
2022/01/16 04:46:14;;;;;;;;;61.00;47.25;;;;;;;;5076282;27;45455;-65
2022/01/16 04:48:39;;;;;;;;;68.33;51.00;;;;;;;;5072373;27;45386;-65
2022/01/16 04:51:04;;;;;;;;;67.00;49.00;;;;;;;;5072354;28;45507;-65
2022/01/16 04:53:30;;;;;;;;;69.00;52.00;;;;;;;;5056616;28;45570;-65
2022/01/16 04:55:55;;;;;;;;;67.50;50.00;;;;;;;;5073850;27;45344;-65
2022/01/16 04:58:21;;;;;;;;;70.00;53.67;;;;;;;;5075559;27;45316;-65
2022/01/16 05:00:46;;;;;;;;;67.67;52.33;;;;;;;;5074061;28;46687;-65
2022/01/16 05:03:12;;;;;;;;;66.00;51.33;;;;;;;;5073756;28;45228;-65
2022/01/16 05:05:37;;;;;;;;;64.50;48.75;;;;;;;;5073770;28;45231;-65
2022/01/16 05:08:02;;;;;;;;;62.67;47.33;;;;;;;;5073958;28;45276;-65
2022/01/16 05:10:27;;;;;;;;;68.50;52.25;;;;;;;;5073477;28;47164;-65
2022/01/16 05:12:53;;;;;;;;;66.00;49.00;;;;;;;;5074642;28;45378;-66
2022/01/16 05:18:02;;;;;;;;;68.75;50.75;;;;;;;;5073558;28;45402;-66
2022/01/16 05:20:27;;;;;;;;;62.50;47.50;;;;;;;;5073532;28;46026;-66
2022/01/16 05:22:52;;;;;;;;;61.00;45.75;;;;;;;;5073553;28;45435;-65
2022/01/16 05:25:18;;;;;;;;;51.25;41.25;;;;;;;;5074536;27;45224;-65
2022/01/16 05:27:43;;;;;;;;;61.00;46.33;;;;;;;;5072220;28;45497;-65
2022/01/16 05:30:09;;;;;;;;;62.50;51.00;;;;;;;;5071879;28;45379;-66
2022/01/16 05:32:34;;;;;;;;;64.67;49.67;;;;;;;;5073431;28;45372;-66
2022/01/16 05:34:59;;;;;;;;;66.75;47.00;;;;;;;;5073559;28;45304;-66
2022/01/16 05:37:25;;;;;;;;;58.00;45.25;;;;;;;;5074241;28;45300;-65
2022/01/16 05:39:50;;;;;;;;;62.00;45.00;;;;;;;;5073738;28;45888;-65
2022/01/16 05:42:15;;;;;;;;;62.75;50.25;;;;;;;;5075479;27;45392;-66
2022/01/16 05:44:41;;;;;;;;;66.33;48.67;;;;;;;;5076711;28;45369;-65
2022/01/16 05:47:06;;;;;;;;;57.67;41.33;;;;;;;;5076441;27;45438;-67
2022/01/16 05:49:31;;;;;;;;;62.75;48.50;;;;;;;;5076346;27;46272;-67
2022/01/16 05:51:56;;;;;;;;;62.67;48.33;;;;;;;;5078684;27;45270;-65
2022/01/16 05:54:22;;;;;;;;;59.00;44.50;;;;;;;;5076265;27;45461;-66
2022/01/16 05:56:47;;;;;;;;;59.00;41.25;;;;;;;;5076483;27;45383;-66
2022/01/16 05:59:12;;;;;;;;;63.50;46.50;;;;;;;;5076636;27;46492;-66
2022/01/16 06:01:37;;;;;;;;;49.00;41.25;;;;;;;;5076277;28;45310;-67
2022/01/16 06:04:03;;;;;;;;;59.25;44.50;;;;;;;;5060456;28;45486;-66
2022/01/16 06:06:28;;;;;;;;;58.00;41.75;;;;;;;;5074521;27;45502;-66
2022/01/16 06:08:53;;;;;;;;;56.75;42.00;;;;;;;;5073758;27;46050;-65
2022/01/16 06:11:18;;;;;;;;;51.75;38.00;;;;;;;;5056521;28;45346;-66
2022/01/16 06:13:44;;;;;;;;;54.00;42.00;;;;;;;;5076450;27;45426;-66
2022/01/16 06:16:09;;;;;;;;;55.00;43.00;;;;;;;;5078258;28;45303;-65
2022/01/16 06:18:35;;;;;;;;;52.50;39.75;;;;;;;;5076034;28;46271;-66
2022/01/16 06:21:00;;;;;;;;;39.75;35.75;;;;;;;;5076075;27;45324;-65
2022/01/16 06:23:25;;;;;;;;;56.00;44.00;;;;;;;;5075586;27;45316;-66
2022/01/16 06:25:54;;;;;;;;;63.50;41.75;;;;;;;;5058547;28;45388;-65
2022/01/16 06:28:20;;;;;;;;;54.25;41.50;;;;;;;;5076928;28;46068;-66
2022/01/16 06:30:45;;;;;;;;;46.75;39.00;;;;;;;;5076189;28;45609;-66
2022/01/16 06:33:10;;;;;;;;;46.75;35.75;;;;;;;;5075833;28;49775;-66
2022/01/16 06:35:35;;;;;;;;;43.75;36.50;;;;;;;;5076044;28;45507;-66
2022/01/16 06:38:01;;;;;;;;;43.50;36.50;;;;;;;;5075049;28;46023;-66
2022/01/16 06:40:26;;;;;;;;;38.50;33.75;;;;;;;;5075966;27;45790;-66
2022/01/16 06:42:52;;;;;;;;;38.25;34.25;;;;;;;;5075874;28;45535;-65
2022/01/16 06:45:17;;;;;;;;;41.00;38.00;;;;;;;;5073357;27;45502;-64
2022/01/16 06:47:43;;;;;;;;;43.25;34.25;;;;;;;;5073486;28;46287;-64
2022/01/16 06:50:08;;;;;;;;;35.00;25.50;;;;;;;;5075139;27;45484;-66
2022/01/16 06:52:34;;;;;;;;;39.25;32.00;;;;;;;;5074988;28;45767;-66
2022/01/16 06:54:59;;;;;;;;;32.00;26.00;;;;;;;;5077351;27;45483;-66
2022/01/16 06:57:24;;;;;;;;;45.25;39.00;;;;;;;;5074686;27;47051;-66
2022/01/16 06:59:49;;;;;;;;;42.25;32.50;;;;;;;;5075181;28;45422;-66
2022/01/16 07:02:16;;;;;;;;;41.75;33.25;;;;;;;;5074864;27;45545;-66
2022/01/16 07:04:42;;;;;;;;;38.75;32.75;;;;;;;;5075037;27;45494;-66
2022/01/16 07:07:07;;;;;;;;;46.75;40.00;;;;;;;;5076612;27;46101;-66
2022/01/16 07:09:32;;;;;;;;;38.25;28.25;;;;;;;;5074284;27;45448;-66
2022/01/16 07:11:58;;;;;;;;;53.67;42.00;;;;;;;;5074214;28;45269;-66
2022/01/16 07:14:23;;;;;;;;;37.25;30.75;;;;;;;;5074965;27;45466;-66
2022/01/16 07:16:48;;;;;;;;;46.75;38.00;;;;;;;;5055810;28;46025;-66
2022/01/16 07:19:14;;;;;;;;;50.25;39.00;;;;;;;;5077207;27;45458;-66
2022/01/16 07:21:39;;;;;;;;;44.00;36.25;;;;;;;;5074060;28;45264;-66
2022/01/16 07:24:04;;;;;;;;;46.25;38.00;;;;;;;;5072758;27;45430;-66
2022/01/16 07:26:29;;;;;;;;;46.50;35.50;;;;;;;;5071823;27;47128;-66
2022/01/16 07:28:54;;;;;;;;;50.00;36.25;;;;;;;;5074618;28;45565;-66
2022/01/16 07:31:20;;;;;;;;;45.50;37.75;;;;;;;;5076695;27;45355;-65
2022/01/16 07:33:45;;;;;;;;;35.75;28.50;;;;;;;;5075465;27;45437;-65
2022/01/16 07:36:10;;;;;;;;;28.00;24.50;;;;;;;;5074568;27;47073;-65
2022/01/16 07:38:36;;;;;;;;;37.50;28.75;;;;;;;;5074237;28;45563;-67
2022/01/16 07:41:01;;;;;;;;;32.50;29.50;;;;;;;;5074327;28;45299;-67
2022/01/16 07:43:26;;;;;;;;;15.50;9.50;;;;;;;;5075285;28;45351;-66
2022/01/16 07:45:51;;;;;;;;;37.50;29.00;;;;;;;;5075426;27;46400;-66
2022/01/16 07:48:16;;;;;;;;;37.00;32.25;;;;;;;;5074113;28;45502;-69
2022/01/16 07:50:42;;;;;;;;;34.50;31.00;;;;;;;;5039840;28;46880;-68
2022/01/16 07:53:08;;;;;;;;;41.50;34.50;;;;;;;;5074259;28;45541;-69
2022/01/16 07:55:33;;;;;;;;;33.50;29.00;;;;;;;;5073583;27;45948;-67
2022/01/16 07:57:58;;;;;;;;;34.00;28.75;;;;;;;;5075784;27;45466;-67
2022/01/16 08:00:25;;;;;;;;;36.75;30.00;;;;;;;;5074128;27;45414;-67
2022/01/16 08:02:50;;;;;;;;;33.25;27.50;;;;;;;;5072484;28;45335;-67
2022/01/16 08:05:16;;;;;;;;;39.50;30.75;;;;;;;;5071232;28;46283;-68
2022/01/16 08:07:42;;;;;;;;;38.25;28.00;;;;;;;;5074089;27;45358;-68
2022/01/16 08:10:07;;;;;;;;;39.50;34.00;;;;;;;;5075833;27;45300;-68
2022/01/16 08:12:33;;;;;;;;;37.25;32.50;;;;;;;;5074104;27;45289;-68
2022/01/16 08:14:58;;;;;;;;;43.00;33.25;;;;;;;;5073874;27;46175;-68
2022/01/16 08:17:24;;;;;;;;;37.75;29.75;;;;;;;;5074129;27;45348;-68
2022/01/16 08:19:49;;;;;;;;;29.75;27.00;;;;;;;;5073553;27;45638;-67
2022/01/16 08:22:14;;;;;;;;;34.25;26.25;;;;;;;;5075615;28;45406;-68
2022/01/16 08:24:40;;;;;;;;;29.50;24.25;;;;;;;;5073392;27;46256;-67
2022/01/16 08:27:05;;;;;;;;;42.25;31.50;;;;;;;;5073014;27;45347;-68
2022/01/16 08:29:30;;;;;;;;;40.25;29.75;;;;;;;;5073427;27;45577;-68
2022/01/16 08:31:55;;;;;;;;;33.00;28.25;;;;;;;;5073158;27;45249;-67
2022/01/16 08:34:20;;;;;;;;;31.25;27.25;;;;;;;;5074345;27;46257;-68
2022/01/16 08:36:46;;;;;;;;;41.00;34.00;;;;;;;;5073851;27;45334;-68
2022/01/16 08:39:11;;;;;;;;;35.75;30.25;;;;;;;;5073494;27;45301;-68
2022/01/16 08:41:37;;;;;;;;;34.75;27.75;;;;;;;;5071400;27;45559;-68
2022/01/16 08:44:03;;;;;;;;;34.75;27.50;;;;;;;;5071356;27;46082;-67
2022/01/16 08:46:28;;;;;;;;;34.00;28.50;;;;;;;;5055633;28;45578;-68
2022/01/16 08:48:53;;;;;;;;;33.00;27.00;;;;;;;;5074403;28;45386;-68
2022/01/16 08:51:19;;;;;;;;;32.75;26.75;;;;;;;;5073103;27;45475;-68
2022/01/16 08:53:45;;;;;;;;;36.25;26.00;;;;;;;;5072963;27;46131;-69
2022/01/16 08:56:10;;;;;;;;;30.75;29.75;;;;;;;;5072910;28;45530;-68
2022/01/16 08:58:35;;;;;;;;;30.75;24.00;;;;;;;;5073314;28;45398;-68
2022/01/16 09:01:00;;;;;;;;;37.00;32.75;;;;;;;;5056701;27;45501;-67
2022/01/16 09:03:25;;;;;;;;;43.00;31.00;;;;;;;;5072698;27;45588;-68
2022/01/16 09:05:51;;;;;;;;;26.00;25.25;;;;;;;;5072907;27;45527;-68
2022/01/16 09:08:17;;;;;;;;;33.25;28.50;;;;;;;;5072865;27;45461;-68
2022/01/16 09:10:43;;;;;;;;;35.50;26.75;;;;;;;;5072797;27;45332;-68
2022/01/16 09:13:11;;;;;;;;;39.00;31.00;;;;;;;;5074259;27;45391;-68
2022/01/16 09:15:37;;;;;;;;;34.50;29.25;;;;;;;;5071281;28;45587;-68
2022/01/16 09:18:02;;;;;;;;;38.50;33.75;;;;;;;;5072546;27;45304;-68
2022/01/16 09:20:27;;;;;;;;;29.75;29.75;;;;;;;;5070702;27;45480;-67
2022/01/16 09:22:53;;;;;;;;;31.25;30.75;;;;;;;;5070569;28;46201;-68
2022/01/16 09:25:20;;;;;;;;;33.00;25.00;;;;;;;;5074186;28;45730;-68
2022/01/16 09:27:45;;;;;;;;;31.00;26.50;;;;;;;;5071079;27;45311;-68
2022/01/16 09:30:11;;;;;;;;;36.75;28.75;;;;;;;;5072353;28;45289;-69
2022/01/16 09:32:37;;;;;;;;;28.75;25.00;;;;;;;;5071634;28;46897;-68
2022/01/16 09:35:03;;;;;;;;;33.25;28.25;;;;;;;;5072616;27;45438;-68
2022/01/16 09:37:28;;;;;;;;;32.25;22.75;;;;;;;;5073226;27;45319;-68
2022/01/16 09:39:54;;;;;;;;;31.75;27.50;;;;;;;;5074375;28;45288;-70
2022/01/16 09:42:21;;;;;;;;;26.25;26.25;;;;;;;;5071972;27;47098;-68
2022/01/16 09:44:46;;;;;;;;;36.50;32.00;;;;;;;;5072348;27;45573;-69
2022/01/16 09:47:12;;;;;;;;;35.00;27.25;;;;;;;;5072541;28;45513;-74
2022/01/16 09:49:37;;;;;;;;;27.00;24.75;;;;;;;;5072668;28;45313;-75
2022/01/16 09:52:02;;;;;;;;;42.00;36.00;;;;;;;;5074519;28;47341;-77
2022/01/16 09:54:28;;;;;;;;;34.50;30.75;;;;;;;;5072366;27;45383;-76
2022/01/16 09:56:55;;;;;;;;;27.25;24.00;;;;;;;;5052931;28;45422;-75
2022/01/16 09:59:20;;;;;;;;;35.00;31.00;;;;;;;;5070526;28;45418;-74
2022/01/16 10:01:45;;;;;;;;;32.75;22.50;;;;;;;;5071368;28;45257;-74
2022/01/16 10:04:30;;;;;;;;;28.00;23.00;;;;;;;;5073875;28;45303;-74
2022/01/16 10:06:56;;;;;;;;;36.75;30.50;;;;;;;;5073912;28;45580;-73
2022/01/16 10:09:21;;;;;;;;;33.00;30.50;;;;;;;;5072205;28;45417;-73
2022/01/16 10:11:55;;;;;;;;;16.25;11.00;;;;;;;;5071946;27;47119;-74
2022/01/16 10:14:26;;;;;;;;;22.50;19.75;;;;;;;;5071552;27;45384;-74
2022/01/16 10:16:51;;;;;;;;;31.50;28.25;;;;;;;;5072036;27;45557;-74
2022/01/16 10:19:27;;;;;;;;;31.25;25.00;;;;;;;;5074032;28;45575;-74
2022/01/16 10:21:53;;;;;;;;;31.25;27.50;;;;;;;;5073066;28;46159;-73
2022/01/16 10:24:26;;;;;;;;;19.75;19.50;;;;;;;;5072179;27;45472;-73
2022/01/16 10:27:10;;;;;;;;;36.25;27.00;;;;;;;;5072746;27;45419;-74
2022/01/16 10:29:39;;;;;;;;;22.50;21.25;;;;;;;;5075080;27;45841;-75
2022/01/16 10:32:12;;;;;;;;;25.00;23.25;;;;;;;;5075197;27;47367;-74
2022/01/16 10:34:38;;;;;;;;;27.25;23.75;;;;;;;;5075528;27;45429;-73
2022/01/16 10:37:17;;;;;;;;;28.25;25.75;;;;;;;;5077478;27;45383;-73
2022/01/16 10:39:53;;;;;;;;;24.25;22.50;;;;;;;;5075505;27;45498;-73
2022/01/16 10:42:18;;;;;;;;;16.00;11.00;;;;;;;;5073178;27;45327;-73
2022/01/16 10:44:44;;;;;;;;;28.75;20.25;;;;;;;;5073262;27;45245;-74
2022/01/16 10:47:22;;;;;;;;;28.00;25.50;;;;;;;;5075751;27;45353;-74
2022/01/16 10:50:07;;;;;;;;;29.25;23.75;;;;;;;;5059672;27;45382;-74
2022/01/16 10:52:32;;;;;;;;;18.75;16.75;;;;;;;;5072604;27;45498;-74
2022/01/16 10:55:05;;;;;;;;;29.25;24.25;;;;;;;;5076931;27;45368;-73
2022/01/16 10:57:30;;;;;;;;;21.00;20.50;;;;;;;;5074711;27;45564;-73
2022/01/16 11:00:06;;;;;;;;;24.00;20.50;;;;;;;;5075050;27;45674;-75
2022/01/16 11:02:31;;;;;;;;;30.75;23.00;;;;;;;;5074280;27;45547;-73
2022/01/16 11:05:06;;;;;;;;;24.75;18.00;;;;;;;;5073046;28;45691;-76
2022/01/16 11:07:31;;;;;;;;;21.50;21.25;;;;;;;;5075037;27;45390;-75
2022/01/16 11:09:56;;;;;;;;;23.25;22.00;;;;;;;;5071390;27;45569;-75
2022/01/16 11:12:22;;;;;;;;;23.00;23.00;;;;;;;;5072773;28;46272;-76
2022/01/16 11:14:47;;;;;;;;;21.75;18.25;;;;;;;;5053914;28;45716;-75
2022/01/16 11:17:12;;;;;;;;;26.25;23.25;;;;;;;;5072508;28;45538;-75
2022/01/16 11:19:39;;;;;;;;;23.00;18.50;;;;;;;;5073537;28;45609;-75
2022/01/16 11:22:09;;;;;;;;;19.50;17.25;;;;;;;;5073994;27;45684;-76
2022/01/16 11:24:47;;;;;;;;;20.75;17.25;;;;;;;;5073256;27;45272;-76
2022/01/16 11:27:14;;;;;;;;;23.00;22.00;;;;;;;;5073415;27;45462;-75
2022/01/16 11:29:40;;;;;;;;;20.25;18.50;;;;;;;;5073749;27;45931;-75
2022/01/16 11:32:07;;;;;;;;;23.25;21.50;;;;;;;;5056175;28;47209;-75
2022/01/16 11:34:32;;;;;;;;;27.00;22.75;;;;;;;;5073539;27;45500;-74
2022/01/16 11:36:57;;;;;;;;;24.50;21.00;;;;;;;;5075473;28;45504;-75
2022/01/16 11:39:32;;;;;;;;;20.00;18.75;;;;;;;;5072511;27;45368;-77
2022/01/16 11:41:59;;;;;;;;;25.00;22.75;;;;;;;;5073983;28;45386;-75
2022/01/16 11:44:27;;;;;;;;;22.50;21.25;;;;;;;;5073358;27;45325;-75
2022/01/16 11:46:55;;;;;;;;;29.25;24.50;;;;;;;;5073009;28;45491;-77
2022/01/16 11:49:41;;;;;;;;;29.50;26.00;;;;;;;;5074436;27;45379;-75
2022/01/16 11:52:10;;;;;;;;;25.00;24.00;;;;;;;;5074868;28;45469;-76
2022/01/16 11:54:36;;;;;;;;;31.00;26.00;;;;;;;;5072889;28;45419;-74
2022/01/16 11:57:07;;;;;;;;;24.25;23.00;;;;;;;;5071272;27;45307;-76
2022/01/16 11:59:32;;;;;;;;;48.75;40.50;;;;;;;;5072754;28;45379;-72
2022/01/16 12:02:16;;;;;;;;;31.25;26.25;;;;;;;;5072682;28;45999;-73
2022/01/16 12:04:44;;;;;;;;;27.50;21.75;;;;;;;;5072965;27;45472;-73
2022/01/16 12:07:12;;;;;;;;;29.00;26.25;;;;;;;;5072308;28;45293;-75
2022/01/16 12:09:39;;;;;;;;;23.00;19.75;;;;;;;;5071058;28;45634;-73
2022/01/16 12:12:14;;;;;;;;;27.00;22.75;;;;;;;;5066539;28;46496;-75
2022/01/16 12:14:51;;;;;;;;;23.75;21.25;;;;;;;;5061682;28;45450;-75
2022/01/16 12:17:38;;;;;;;;;24.75;21.00;;;;;;;;5069428;28;45490;-74
2022/01/16 12:20:09;;;;;;;;;30.25;22.00;;;;;;;;5060374;28;45380;-75
2022/01/16 12:22:44;;;;;;;;;24.00;20.25;;;;;;;;5056927;28;45436;-74
2022/01/16 12:25:28;;;;;;;;;33.00;25.25;;;;;;;;5070096;27;45398;-74
2022/01/16 12:27:55;;;;;;;;;17.75;16.25;;;;;;;;5069371;28;45401;-74
2022/01/16 12:30:25;;;;;;;;;23.00;21.50;;;;;;;;5065633;27;45444;-74
2022/01/16 12:32:50;;;;;;;;;20.00;15.25;;;;;;;;5068404;28;45315;-75
2022/01/16 12:35:35;;;;;;;;;21.00;21.00;;;;;;;;5070207;27;45500;-76
2022/01/16 12:38:04;;;;;;;;;17.75;17.75;;;;;;;;5058283;28;45774;-75
2022/01/16 12:40:30;;;;;;;;;23.25;22.00;;;;;;;;5053717;28;45363;-73
2022/01/16 12:42:55;;;;;;;;;25.75;21.75;;;;;;;;5069451;28;45494;-75
2022/01/16 12:45:21;;;;;;;;;12.50;12.25;;;;;;;;5069427;28;45242;-73
2022/01/16 12:47:47;;;;;;;;;19.50;16.25;;;;;;;;5073098;27;45564;-73
2022/01/16 12:50:12;;;;;;;;;27.50;23.00;;;;;;;;5070460;28;47698;-72
2022/01/16 12:52:44;;;;;;;;;29.25;23.00;;;;;;;;5071988;27;45554;-74
2022/01/16 12:55:10;;;;;;;;;25.00;23.75;;;;;;;;5069308;28;45382;-74
2022/01/16 12:57:35;;;;;;;;;27.75;24.00;;;;;;;;5068542;28;45522;-74
2022/01/16 13:00:08;;;;;;;;;27.00;19.00;;;;;;;;5069292;27;45422;-74
2022/01/16 13:02:33;;;;;;;;;26.00;21.75;;;;;;;;5068705;28;45453;-73
2022/01/16 13:04:58;;;;;;;;;22.75;19.25;;;;;;;;5072366;27;46730;-72
2022/01/16 13:07:24;;;;;;;;;26.75;22.25;;;;;;;;5070141;28;45440;-72
2022/01/16 13:09:49;;;;;;;;;25.00;19.25;;;;;;;;5068036;28;45373;-73
2022/01/16 13:12:15;;;;;;;;;30.25;26.50;;;;;;;;5068363;28;46636;-72
2022/01/16 13:14:42;;;;;;;;;27.00;19.75;;;;;;;;5068647;28;45390;-71
2022/01/16 13:17:10;;;;;;;;;23.00;21.75;;;;;;;;5070787;27;45542;-72
2022/01/16 13:22:12;;;;;;;;;27.00;25.00;;;;;;;;5069408;27;45414;-71
2022/01/16 13:24:39;;;;;;;;;23.50;22.00;;;;;;;;5068415;27;45338;-73
2022/01/16 13:27:06;;;;;;;;;25.25;24.00;;;;;;;;5066982;28;45433;-71
2022/01/16 13:29:32;;;;;;;;;16.50;14.50;;;;;;;;5060841;28;45490;-71
2022/01/16 13:31:58;;;;;;;;;32.00;27.50;;;;;;;;5057484;28;47042;-70
2022/01/16 13:34:38;;;;;;;;;25.50;22.75;;;;;;;;5054379;28;45328;-73
2022/01/16 13:37:06;;;;;;;;;25.75;19.50;;;;;;;;5065463;28;45409;-71
2022/01/16 13:39:32;;;;;;;;;26.50;23.00;;;;;;;;5071100;27;45382;-72
2022/01/16 13:42:13;;;;;;;;;31.25;24.50;;;;;;;;5067324;27;46884;-72
2022/01/16 13:44:39;;;;;;;;;28.50;24.25;;;;;;;;5068191;28;45445;-72
2022/01/16 13:47:04;;;;;;;;;29.50;25.50;;;;;;;;5072581;28;45418;-72
2022/01/16 13:49:29;;;;;;;;;22.25;19.50;;;;;;;;5037937;28;45397;-72
2022/01/16 13:51:59;;;;;;;;;26.00;24.75;;;;;;;;5068314;28;45391;-74
2022/01/16 13:54:31;;;;;;;;;30.50;24.25;;;;;;;;5068226;28;45292;-73
2022/01/16 13:56:57;;;;;;;;;28.25;22.25;;;;;;;;5068000;28;45588;-72
2022/01/16 13:59:23;;;;;;;;;32.00;26.25;;;;;;;;5068327;27;45513;-73
2022/01/16 14:01:52;;;;;;;;;26.00;24.25;;;;;;;;5073302;28;46054;-73
2022/01/16 14:04:18;;;;;;;;;23.50;16.25;;;;;;;;5073177;28;45373;-73
2022/01/16 14:06:56;;;;;;;;;29.00;26.25;;;;;;;;5064001;28;45455;-72
2022/01/16 14:09:22;;;;;;;;;32.75;23.75;;;;;;;;5068673;27;45608;-72
2022/01/16 14:11:49;;;;;;;;;23.75;21.25;;;;;;;;5072002;27;46340;-73
2022/01/16 14:14:16;;;;;;;;;30.50;27.25;;;;;;;;5075513;27;45780;-73
2022/01/16 14:16:50;;;;;;;;;26.00;23.00;;;;;;;;5059718;28;45349;-73
2022/01/16 14:19:17;;;;;;;;;24.50;22.75;;;;;;;;5073015;27;45230;-74
2022/01/16 14:21:59;;;;;;;;;33.75;29.75;;;;;;;;5063347;28;46203;-73
2022/01/16 14:24:24;;;;;;;;;25.50;21.50;;;;;;;;5068917;28;45605;-73
2022/01/16 14:26:51;;;;;;;;;22.75;21.75;;;;;;;;5071696;28;45379;-74
2022/01/16 14:29:17;;;;;;;;;29.25;25.50;;;;;;;;5066030;27;45494;-74
2022/01/16 14:31:43;;;;;;;;;27.50;25.25;;;;;;;;5059518;27;46249;-72
2022/01/16 14:34:08;;;;;;;;;25.25;24.25;;;;;;;;5072305;27;45391;-75
2022/01/16 14:36:33;;;;;;;;;30.75;21.00;;;;;;;;5071137;27;45336;-73
2022/01/16 14:38:58;;;;;;;;;22.00;21.00;;;;;;;;5070776;28;45468;-75
2022/01/16 14:41:24;;;;;;;;;27.75;23.75;;;;;;;;5070466;28;46551;-73
2022/01/16 14:43:54;;;;;;;;;23.75;22.00;;;;;;;;5075123;27;45340;-75
2022/01/16 14:46:20;;;;;;;;;22.75;17.75;;;;;;;;5072667;27;45479;-73
2022/01/16 14:48:47;;;;;;;;;25.75;24.25;;;;;;;;5074609;28;45516;-73
2022/01/16 14:51:12;;;;;;;;;38.75;34.75;;;;;;;;5074149;27;45534;-72
2022/01/16 14:53:38;;;;;;;;;34.00;28.25;;;;;;;;5074499;27;45518;-73
2022/01/16 14:56:03;;;;;;;;;27.25;21.50;;;;;;;;5074635;27;45344;-73
2022/01/16 14:58:28;;;;;;;;;28.75;25.50;;;;;;;;5057279;28;45461;-72
2022/01/16 15:00:53;;;;;;;;;31.00;26.50;;;;;;;;5075476;27;46233;-73